sensor_id;sensor_type;location;lat;lon;timestamp;P1;durP1;ratioP1;P2;durP2;ratioP2
56728;SDS011;42612;52.232;7.560;2024-03-07T00:00:02;25.00;;;14.30;;
56728;SDS011;42612;52.232;7.560;2024-03-07T00:05:09;21.75;;;13.50;;
56728;SDS011;42612;52.232;7.560;2024-03-07T00:07:39;26.77;;;15.00;;
56728;SDS011;42612;52.232;7.560;2024-03-07T00:10:06;27.13;;;14.82;;
56728;SDS011;42612;52.232;7.560;2024-03-07T00:12:35;23.77;;;14.13;;
56728;SDS011;42612;52.232;7.560;2024-03-07T00:15:03;26.77;;;15.57;;
56728;SDS011;42612;52.232;7.560;2024-03-07T00:17:34;24.45;;;15.02;;
56728;SDS011;42612;52.232;7.560;2024-03-07T00:20:00;23.67;;;14.82;;
56728;SDS011;42612;52.232;7.560;2024-03-07T00:22:29;22.38;;;13.77;;
56728;SDS011;42612;52.232;7.560;2024-03-07T00:24:56;25.35;;;13.93;;
56728;SDS011;42612;52.232;7.560;2024-03-07T00:27:22;22.10;;;13.88;;
56728;SDS011;42612;52.232;7.560;2024-03-07T00:29:49;21.48;;;13.43;;
56728;SDS011;42612;52.232;7.560;2024-03-07T00:32:21;24.85;;;13.73;;
56728;SDS011;42612;52.232;7.560;2024-03-07T00:34:48;25.05;;;14.98;;
56728;SDS011;42612;52.232;7.560;2024-03-07T00:37:15;23.35;;;14.57;;
56728;SDS011;42612;52.232;7.560;2024-03-07T00:39:42;23.13;;;13.43;;
56728;SDS011;42612;52.232;7.560;2024-03-07T00:42:08;20.20;;;13.25;;
56728;SDS011;42612;52.232;7.560;2024-03-07T00:44:34;25.92;;;14.50;;
56728;SDS011;42612;52.232;7.560;2024-03-07T00:47:00;23.67;;;14.00;;
56728;SDS011;42612;52.232;7.560;2024-03-07T00:49:29;22.17;;;14.38;;
56728;SDS011;42612;52.232;7.560;2024-03-07T00:51:57;22.67;;;13.75;;
56728;SDS011;42612;52.232;7.560;2024-03-07T00:54:24;24.35;;;14.35;;
56728;SDS011;42612;52.232;7.560;2024-03-07T00:56:50;23.88;;;14.52;;
56728;SDS011;42612;52.232;7.560;2024-03-07T00:59:16;21.35;;;13.07;;
56728;SDS011;42612;52.232;7.560;2024-03-07T01:01:42;21.52;;;13.70;;
56728;SDS011;42612;52.232;7.560;2024-03-07T01:04:08;19.60;;;12.00;;
56728;SDS011;42612;52.232;7.560;2024-03-07T01:06:36;24.23;;;13.05;;
56728;SDS011;42612;52.232;7.560;2024-03-07T01:09:02;19.90;;;11.80;;
56728;SDS011;42612;52.232;7.560;2024-03-07T01:11:29;22.90;;;13.60;;
56728;SDS011;42612;52.232;7.560;2024-03-07T01:13:55;23.25;;;12.98;;
56728;SDS011;42612;52.232;7.560;2024-03-07T01:16:21;20.65;;;13.23;;
56728;SDS011;42612;52.232;7.560;2024-03-07T01:18:47;21.27;;;13.00;;
56728;SDS011;42612;52.232;7.560;2024-03-07T01:21:14;21.02;;;13.25;;
56728;SDS011;42612;52.232;7.560;2024-03-07T01:23:40;20.48;;;12.73;;
56728;SDS011;42612;52.232;7.560;2024-03-07T01:26:06;19.75;;;12.70;;
56728;SDS011;42612;52.232;7.560;2024-03-07T01:28:33;19.73;;;12.40;;
56728;SDS011;42612;52.232;7.560;2024-03-07T01:30:59;21.70;;;12.77;;
56728;SDS011;42612;52.232;7.560;2024-03-07T01:33:25;20.17;;;13.15;;
56728;SDS011;42612;52.232;7.560;2024-03-07T01:35:51;20.95;;;11.80;;
56728;SDS011;42612;52.232;7.560;2024-03-07T01:38:17;20.98;;;13.30;;
56728;SDS011;42612;52.232;7.560;2024-03-07T01:40:43;23.17;;;12.73;;
56728;SDS011;42612;52.232;7.560;2024-03-07T01:43:09;19.20;;;11.65;;
56728;SDS011;42612;52.232;7.560;2024-03-07T01:45:39;18.67;;;11.82;;
56728;SDS011;42612;52.232;7.560;2024-03-07T01:48:05;19.63;;;12.30;;
56728;SDS011;42612;52.232;7.560;2024-03-07T01:50:34;19.50;;;11.48;;
56728;SDS011;42612;52.232;7.560;2024-03-07T01:53:04;17.85;;;11.07;;
56728;SDS011;42612;52.232;7.560;2024-03-07T01:55:35;20.23;;;12.00;;
56728;SDS011;42612;52.232;7.560;2024-03-07T01:58:02;20.10;;;11.05;;
56728;SDS011;42612;52.232;7.560;2024-03-07T02:02:56;17.80;;;10.13;;
56728;SDS011;42612;52.232;7.560;2024-03-07T02:05:22;20.30;;;11.88;;
56728;SDS011;42612;52.232;7.560;2024-03-07T02:07:48;22.88;;;13.35;;
56728;SDS011;42612;52.232;7.560;2024-03-07T02:10:15;20.55;;;11.68;;
56728;SDS011;42612;52.232;7.560;2024-03-07T02:12:41;20.48;;;12.45;;
56728;SDS011;42612;52.232;7.560;2024-03-07T02:15:07;20.08;;;11.80;;
56728;SDS011;42612;52.232;7.560;2024-03-07T02:17:33;18.58;;;11.93;;
56728;SDS011;42612;52.232;7.560;2024-03-07T02:20:01;22.95;;;12.93;;
56728;SDS011;42612;52.232;7.560;2024-03-07T02:22:29;20.00;;;12.23;;
56728;SDS011;42612;52.232;7.560;2024-03-07T02:24:55;17.17;;;11.45;;
56728;SDS011;42612;52.232;7.560;2024-03-07T02:27:20;19.27;;;11.57;;
56728;SDS011;42612;52.232;7.560;2024-03-07T02:29:46;21.42;;;11.70;;
56728;SDS011;42612;52.232;7.560;2024-03-07T02:32:12;20.60;;;11.98;;
56728;SDS011;42612;52.232;7.560;2024-03-07T02:34:38;20.05;;;11.55;;
56728;SDS011;42612;52.232;7.560;2024-03-07T02:37:04;21.30;;;11.00;;
56728;SDS011;42612;52.232;7.560;2024-03-07T02:39:30;21.45;;;11.85;;
56728;SDS011;42612;52.232;7.560;2024-03-07T02:41:55;18.83;;;12.20;;
56728;SDS011;42612;52.232;7.560;2024-03-07T02:44:21;20.77;;;12.02;;
56728;SDS011;42612;52.232;7.560;2024-03-07T02:46:47;19.77;;;11.70;;
56728;SDS011;42612;52.232;7.560;2024-03-07T02:49:13;20.50;;;11.07;;
56728;SDS011;42612;52.232;7.560;2024-03-07T02:51:42;18.20;;;11.88;;
56728;SDS011;42612;52.232;7.560;2024-03-07T02:54:08;20.35;;;11.57;;
56728;SDS011;42612;52.232;7.560;2024-03-07T02:56:34;19.50;;;10.95;;
56728;SDS011;42612;52.232;7.560;2024-03-07T02:59:00;17.90;;;11.20;;
56728;SDS011;42612;52.232;7.560;2024-03-07T03:01:26;17.58;;;10.48;;
56728;SDS011;42612;52.232;7.560;2024-03-07T03:03:52;15.38;;;10.27;;
56728;SDS011;42612;52.232;7.560;2024-03-07T03:06:18;17.45;;;10.65;;
56728;SDS011;42612;52.232;7.560;2024-03-07T03:08:45;19.50;;;11.63;;
56728;SDS011;42612;52.232;7.560;2024-03-07T03:11:12;19.48;;;11.15;;
56728;SDS011;42612;52.232;7.560;2024-03-07T03:13:39;22.33;;;11.70;;
56728;SDS011;42612;52.232;7.560;2024-03-07T03:16:08;18.17;;;11.00;;
56728;SDS011;42612;52.232;7.560;2024-03-07T03:18:37;17.20;;;10.82;;
56728;SDS011;42612;52.232;7.560;2024-03-07T03:21:03;21.20;;;10.77;;
56728;SDS011;42612;52.232;7.560;2024-03-07T03:23:29;16.70;;;10.35;;
56728;SDS011;42612;52.232;7.560;2024-03-07T03:25:55;18.10;;;10.75;;
56728;SDS011;42612;52.232;7.560;2024-03-07T03:28:22;19.58;;;11.75;;
56728;SDS011;42612;52.232;7.560;2024-03-07T03:30:48;17.52;;;11.00;;
56728;SDS011;42612;52.232;7.560;2024-03-07T03:33:38;21.00;;;11.52;;
56728;SDS011;42612;52.232;7.560;2024-03-07T03:36:05;19.92;;;11.52;;
56728;SDS011;42612;52.232;7.560;2024-03-07T03:38:32;17.25;;;10.90;;
56728;SDS011;42612;52.232;7.560;2024-03-07T03:40:58;18.10;;;11.27;;
56728;SDS011;42612;52.232;7.560;2024-03-07T03:43:23;21.52;;;12.23;;
56728;SDS011;42612;52.232;7.560;2024-03-07T03:45:49;18.38;;;10.73;;
56728;SDS011;42612;52.232;7.560;2024-03-07T03:48:15;19.83;;;12.88;;
56728;SDS011;42612;52.232;7.560;2024-03-07T03:50:41;28.80;;;11.63;;
56728;SDS011;42612;52.232;7.560;2024-03-07T03:53:06;16.50;;;10.18;;
56728;SDS011;42612;52.232;7.560;2024-03-07T03:55:33;19.48;;;11.43;;
56728;SDS011;42612;52.232;7.560;2024-03-07T03:57:59;19.42;;;11.65;;
56728;SDS011;42612;52.232;7.560;2024-03-07T04:00:25;18.48;;;11.65;;
56728;SDS011;42612;52.232;7.560;2024-03-07T04:02:51;17.95;;;11.50;;
56728;SDS011;42612;52.232;7.560;2024-03-07T04:05:17;18.33;;;10.35;;
56728;SDS011;42612;52.232;7.560;2024-03-07T04:07:45;20.45;;;12.07;;
56728;SDS011;42612;52.232;7.560;2024-03-07T04:10:11;18.30;;;11.43;;
56728;SDS011;42612;52.232;7.560;2024-03-07T04:12:40;17.13;;;10.63;;
56728;SDS011;42612;52.232;7.560;2024-03-07T04:15:15;17.90;;;11.23;;
56728;SDS011;42612;52.232;7.560;2024-03-07T04:17:41;15.65;;;10.23;;
56728;SDS011;42612;52.232;7.560;2024-03-07T04:20:07;18.40;;;11.57;;
56728;SDS011;42612;52.232;7.560;2024-03-07T04:22:38;18.30;;;11.23;;
56728;SDS011;42612;52.232;7.560;2024-03-07T04:25:06;16.30;;;10.73;;
56728;SDS011;42612;52.232;7.560;2024-03-07T04:27:33;16.52;;;10.07;;
56728;SDS011;42612;52.232;7.560;2024-03-07T04:30:02;16.25;;;10.10;;
56728;SDS011;42612;52.232;7.560;2024-03-07T04:32:30;19.10;;;11.32;;
56728;SDS011;42612;52.232;7.560;2024-03-07T04:34:56;17.42;;;10.18;;
56728;SDS011;42612;52.232;7.560;2024-03-07T04:37:25;19.13;;;10.43;;
56728;SDS011;42612;52.232;7.560;2024-03-07T04:39:52;15.97;;;10.07;;
56728;SDS011;42612;52.232;7.560;2024-03-07T04:42:18;15.68;;;9.90;;
56728;SDS011;42612;52.232;7.560;2024-03-07T04:44:44;17.05;;;9.82;;
56728;SDS011;42612;52.232;7.560;2024-03-07T04:47:10;18.00;;;10.30;;
56728;SDS011;42612;52.232;7.560;2024-03-07T04:49:35;16.52;;;10.98;;
56728;SDS011;42612;52.232;7.560;2024-03-07T04:52:01;15.85;;;9.90;;
56728;SDS011;42612;52.232;7.560;2024-03-07T04:54:28;17.05;;;9.50;;
56728;SDS011;42612;52.232;7.560;2024-03-07T04:56:56;17.58;;;9.52;;
56728;SDS011;42612;52.232;7.560;2024-03-07T04:59:22;16.40;;;10.07;;
56728;SDS011;42612;52.232;7.560;2024-03-07T05:01:49;14.85;;;9.73;;
56728;SDS011;42612;52.232;7.560;2024-03-07T05:04:15;18.53;;;9.17;;
56728;SDS011;42612;52.232;7.560;2024-03-07T05:06:42;15.52;;;9.10;;
56728;SDS011;42612;52.232;7.560;2024-03-07T05:09:08;15.05;;;9.35;;
56728;SDS011;42612;52.232;7.560;2024-03-07T05:11:46;14.15;;;9.18;;
56728;SDS011;42612;52.232;7.560;2024-03-07T05:14:12;14.43;;;8.70;;
56728;SDS011;42612;52.232;7.560;2024-03-07T05:16:38;16.55;;;8.45;;
56728;SDS011;42612;52.232;7.560;2024-03-07T05:19:03;16.17;;;9.45;;
56728;SDS011;42612;52.232;7.560;2024-03-07T05:21:30;13.25;;;8.82;;
56728;SDS011;42612;52.232;7.560;2024-03-07T05:23:58;14.07;;;8.98;;
56728;SDS011;42612;52.232;7.560;2024-03-07T05:26:26;12.65;;;8.88;;
56728;SDS011;42612;52.232;7.560;2024-03-07T05:28:52;15.65;;;9.25;;
56728;SDS011;42612;52.232;7.560;2024-03-07T05:31:21;16.63;;;9.50;;
56728;SDS011;42612;52.232;7.560;2024-03-07T05:33:47;13.93;;;8.02;;
56728;SDS011;42612;52.232;7.560;2024-03-07T05:36:36;14.18;;;8.70;;
56728;SDS011;42612;52.232;7.560;2024-03-07T05:39:12;16.08;;;9.13;;
56728;SDS011;42612;52.232;7.560;2024-03-07T05:41:40;14.00;;;8.82;;
56728;SDS011;42612;52.232;7.560;2024-03-07T05:44:07;14.50;;;8.68;;
56728;SDS011;42612;52.232;7.560;2024-03-07T05:46:36;12.73;;;8.80;;
56728;SDS011;42612;52.232;7.560;2024-03-07T05:49:10;14.07;;;8.98;;
56728;SDS011;42612;52.232;7.560;2024-03-07T05:51:37;13.98;;;8.50;;
56728;SDS011;42612;52.232;7.560;2024-03-07T05:54:03;15.90;;;9.10;;
56728;SDS011;42612;52.232;7.560;2024-03-07T05:56:32;13.82;;;8.70;;
56728;SDS011;42612;52.232;7.560;2024-03-07T05:59:01;14.95;;;9.35;;
56728;SDS011;42612;52.232;7.560;2024-03-07T06:01:32;13.75;;;8.32;;
56728;SDS011;42612;52.232;7.560;2024-03-07T06:04:02;29.60;;;15.50;;
56728;SDS011;42612;52.232;7.560;2024-03-07T06:06:32;19.58;;;11.02;;
56728;SDS011;42612;52.232;7.560;2024-03-07T06:09:03;16.48;;;8.82;;
56728;SDS011;42612;52.232;7.560;2024-03-07T06:11:35;26.17;;;15.38;;
56728;SDS011;42612;52.232;7.560;2024-03-07T06:14:02;23.13;;;13.70;;
56728;SDS011;42612;52.232;7.560;2024-03-07T06:16:33;15.75;;;8.55;;
56728;SDS011;42612;52.232;7.560;2024-03-07T06:19:05;14.07;;;8.50;;
56728;SDS011;42612;52.232;7.560;2024-03-07T06:21:32;14.55;;;9.30;;
56728;SDS011;42612;52.232;7.560;2024-03-07T06:23:59;15.70;;;8.93;;
56728;SDS011;42612;52.232;7.560;2024-03-07T06:26:31;13.70;;;8.30;;
56728;SDS011;42612;52.232;7.560;2024-03-07T06:29:06;14.40;;;8.45;;
56728;SDS011;42612;52.232;7.560;2024-03-07T06:31:32;14.40;;;8.20;;
56728;SDS011;42612;52.232;7.560;2024-03-07T06:33:59;16.00;;;9.13;;
56728;SDS011;42612;52.232;7.560;2024-03-07T06:36:25;13.18;;;8.05;;
56728;SDS011;42612;52.232;7.560;2024-03-07T06:38:51;13.18;;;8.70;;
56728;SDS011;42612;52.232;7.560;2024-03-07T06:41:17;13.40;;;7.65;;
56728;SDS011;42612;52.232;7.560;2024-03-07T06:43:43;13.68;;;7.72;;
56728;SDS011;42612;52.232;7.560;2024-03-07T06:46:12;14.00;;;8.15;;
56728;SDS011;42612;52.232;7.560;2024-03-07T06:48:40;12.13;;;7.32;;
56728;SDS011;42612;52.232;7.560;2024-03-07T06:51:07;14.63;;;7.70;;
56728;SDS011;42612;52.232;7.560;2024-03-07T06:53:33;13.80;;;8.23;;
56728;SDS011;42612;52.232;7.560;2024-03-07T06:55:59;13.27;;;7.85;;
56728;SDS011;42612;52.232;7.560;2024-03-07T06:58:26;13.23;;;8.07;;
56728;SDS011;42612;52.232;7.560;2024-03-07T07:00:52;12.07;;;8.05;;
56728;SDS011;42612;52.232;7.560;2024-03-07T07:03:23;14.23;;;7.88;;
56728;SDS011;42612;52.232;7.560;2024-03-07T07:05:49;12.65;;;7.28;;
56728;SDS011;42612;52.232;7.560;2024-03-07T07:08:15;12.60;;;7.80;;
56728;SDS011;42612;52.232;7.560;2024-03-07T07:10:42;14.82;;;9.18;;
56728;SDS011;42612;52.232;7.560;2024-03-07T07:13:11;16.42;;;7.82;;
56728;SDS011;42612;52.232;7.560;2024-03-07T07:15:38;14.02;;;8.07;;
56728;SDS011;42612;52.232;7.560;2024-03-07T07:18:05;13.52;;;7.93;;
56728;SDS011;42612;52.232;7.560;2024-03-07T07:20:32;14.23;;;8.10;;
56728;SDS011;42612;52.232;7.560;2024-03-07T07:23:02;18.77;;;8.68;;
56728;SDS011;42612;52.232;7.560;2024-03-07T07:25:28;12.68;;;8.05;;
56728;SDS011;42612;52.232;7.560;2024-03-07T07:27:55;14.98;;;8.43;;
56728;SDS011;42612;52.232;7.560;2024-03-07T07:30:22;13.18;;;7.72;;
56728;SDS011;42612;52.232;7.560;2024-03-07T07:32:48;14.23;;;7.82;;
56728;SDS011;42612;52.232;7.560;2024-03-07T07:35:19;18.50;;;7.75;;
56728;SDS011;42612;52.232;7.560;2024-03-07T07:37:45;13.88;;;8.48;;
56728;SDS011;42612;52.232;7.560;2024-03-07T07:40:20;13.00;;;8.05;;
56728;SDS011;42612;52.232;7.560;2024-03-07T07:42:48;14.07;;;8.60;;
56728;SDS011;42612;52.232;7.560;2024-03-07T07:45:17;15.60;;;8.93;;
56728;SDS011;42612;52.232;7.560;2024-03-07T07:47:45;12.60;;;7.75;;
56728;SDS011;42612;52.232;7.560;2024-03-07T07:50:18;11.40;;;7.15;;
56728;SDS011;42612;52.232;7.560;2024-03-07T07:52:52;14.65;;;7.78;;
56728;SDS011;42612;52.232;7.560;2024-03-07T07:55:21;13.60;;;8.15;;
56728;SDS011;42612;52.232;7.560;2024-03-07T07:57:58;12.73;;;7.35;;
56728;SDS011;42612;52.232;7.560;2024-03-07T08:00:25;13.80;;;8.82;;
56728;SDS011;42612;52.232;7.560;2024-03-07T08:05:27;14.93;;;9.02;;
56728;SDS011;42612;52.232;7.560;2024-03-07T08:08:02;16.73;;;8.82;;
56728;SDS011;42612;52.232;7.560;2024-03-07T08:10:31;13.57;;;9.50;;
56728;SDS011;42612;52.232;7.560;2024-03-07T08:12:59;24.13;;;9.55;;
56728;SDS011;42612;52.232;7.560;2024-03-07T08:15:27;13.77;;;8.95;;
56728;SDS011;42612;52.232;7.560;2024-03-07T08:17:55;14.85;;;10.10;;
56728;SDS011;42612;52.232;7.560;2024-03-07T08:20:22;17.83;;;10.40;;
56728;SDS011;42612;52.232;7.560;2024-03-07T08:22:50;18.60;;;10.27;;
56728;SDS011;42612;52.232;7.560;2024-03-07T08:25:17;18.10;;;11.43;;
56728;SDS011;42612;52.232;7.560;2024-03-07T08:27:46;16.27;;;10.20;;
56728;SDS011;42612;52.232;7.560;2024-03-07T08:30:13;18.75;;;11.90;;
56728;SDS011;42612;52.232;7.560;2024-03-07T08:32:41;17.63;;;10.70;;
56728;SDS011;42612;52.232;7.560;2024-03-07T08:35:08;20.40;;;12.05;;
56728;SDS011;42612;52.232;7.560;2024-03-07T08:37:36;20.85;;;11.88;;
56728;SDS011;42612;52.232;7.560;2024-03-07T08:40:03;18.02;;;10.25;;
56728;SDS011;42612;52.232;7.560;2024-03-07T08:42:32;26.45;;;12.38;;
56728;SDS011;42612;52.232;7.560;2024-03-07T08:44:59;18.08;;;11.65;;
56728;SDS011;42612;52.232;7.560;2024-03-07T08:47:29;18.67;;;11.13;;
56728;SDS011;42612;52.232;7.560;2024-03-07T08:49:59;20.52;;;10.45;;
56728;SDS011;42612;52.232;7.560;2024-03-07T08:52:25;20.60;;;10.35;;
56728;SDS011;42612;52.232;7.560;2024-03-07T08:54:53;23.20;;;11.07;;
56728;SDS011;42612;52.232;7.560;2024-03-07T08:57:19;16.38;;;10.43;;
56728;SDS011;42612;52.232;7.560;2024-03-07T08:59:47;17.20;;;10.32;;
56728;SDS011;42612;52.232;7.560;2024-03-07T09:02:13;19.27;;;11.65;;
56728;SDS011;42612;52.232;7.560;2024-03-07T09:04:39;17.77;;;11.07;;
56728;SDS011;42612;52.232;7.560;2024-03-07T09:07:06;17.35;;;10.48;;
56728;SDS011;42612;52.232;7.560;2024-03-07T09:09:32;17.20;;;10.50;;
56728;SDS011;42612;52.232;7.560;2024-03-07T09:12:00;19.97;;;11.80;;
56728;SDS011;42612;52.232;7.560;2024-03-07T09:14:27;17.50;;;10.52;;
56728;SDS011;42612;52.232;7.560;2024-03-07T09:16:53;21.35;;;10.95;;
56728;SDS011;42612;52.232;7.560;2024-03-07T09:19:19;18.15;;;10.57;;
56728;SDS011;42612;52.232;7.560;2024-03-07T09:21:48;20.08;;;10.20;;
56728;SDS011;42612;52.232;7.560;2024-03-07T09:24:17;19.13;;;10.52;;
56728;SDS011;42612;52.232;7.560;2024-03-07T09:26:50;18.73;;;10.13;;
56728;SDS011;42612;52.232;7.560;2024-03-07T09:29:17;17.45;;;9.55;;
56728;SDS011;42612;52.232;7.560;2024-03-07T09:31:48;18.52;;;10.88;;
56728;SDS011;42612;52.232;7.560;2024-03-07T09:34:18;18.27;;;10.55;;
56728;SDS011;42612;52.232;7.560;2024-03-07T09:36:46;20.80;;;10.55;;
56728;SDS011;42612;52.232;7.560;2024-03-07T09:39:13;21.48;;;11.38;;
56728;SDS011;42612;52.232;7.560;2024-03-07T09:41:40;22.23;;;10.53;;
56728;SDS011;42612;52.232;7.560;2024-03-07T09:44:10;20.08;;;11.32;;
56728;SDS011;42612;52.232;7.560;2024-03-07T09:46:47;16.85;;;10.10;;
56728;SDS011;42612;52.232;7.560;2024-03-07T09:49:15;18.42;;;9.75;;
56728;SDS011;42612;52.232;7.560;2024-03-07T09:51:43;17.50;;;10.52;;
56728;SDS011;42612;52.232;7.560;2024-03-07T09:54:09;18.60;;;10.20;;
56728;SDS011;42612;52.232;7.560;2024-03-07T09:56:35;19.65;;;10.18;;
56728;SDS011;42612;52.232;7.560;2024-03-07T09:59:03;13.38;;;9.18;;
56728;SDS011;42612;52.232;7.560;2024-03-07T10:01:35;18.65;;;11.27;;
56728;SDS011;42612;52.232;7.560;2024-03-07T10:04:02;15.65;;;9.48;;
56728;SDS011;42612;52.232;7.560;2024-03-07T10:06:40;16.95;;;9.75;;
56728;SDS011;42612;52.232;7.560;2024-03-07T10:09:09;14.38;;;10.15;;
56728;SDS011;42612;52.232;7.560;2024-03-07T10:11:42;16.65;;;9.13;;
56728;SDS011;42612;52.232;7.560;2024-03-07T10:14:09;15.13;;;8.98;;
56728;SDS011;42612;52.232;7.560;2024-03-07T10:16:35;14.65;;;8.90;;
56728;SDS011;42612;52.232;7.560;2024-03-07T10:19:05;15.32;;;9.18;;
56728;SDS011;42612;52.232;7.560;2024-03-07T10:21:31;16.33;;;9.23;;
56728;SDS011;42612;52.232;7.560;2024-03-07T10:24:07;15.55;;;9.77;;
56728;SDS011;42612;52.232;7.560;2024-03-07T10:26:34;13.77;;;8.98;;
56728;SDS011;42612;52.232;7.560;2024-03-07T10:31:28;15.32;;;9.32;;
56728;SDS011;42612;52.232;7.560;2024-03-07T10:33:59;17.08;;;9.55;;
56728;SDS011;42612;52.232;7.560;2024-03-07T10:36:29;14.98;;;8.93;;
56728;SDS011;42612;52.232;7.560;2024-03-07T10:38:57;15.68;;;9.50;;
56728;SDS011;42612;52.232;7.560;2024-03-07T10:41:47;17.15;;;9.98;;
56728;SDS011;42612;52.232;7.560;2024-03-07T10:44:23;18.70;;;10.48;;
56728;SDS011;42612;52.232;7.560;2024-03-07T10:46:54;17.85;;;9.77;;
56728;SDS011;42612;52.232;7.560;2024-03-07T10:49:22;19.15;;;10.48;;
56728;SDS011;42612;52.232;7.560;2024-03-07T10:52:06;16.88;;;10.02;;
56728;SDS011;42612;52.232;7.560;2024-03-07T10:54:43;18.70;;;9.27;;
56728;SDS011;42612;52.232;7.560;2024-03-07T10:57:51;16.80;;;10.05;;
56728;SDS011;42612;52.232;7.560;2024-03-07T11:00:41;15.95;;;8.88;;
56728;SDS011;42612;52.232;7.560;2024-03-07T11:03:11;19.38;;;10.73;;
56728;SDS011;42612;52.232;7.560;2024-03-07T11:05:39;17.40;;;10.25;;
56728;SDS011;42612;52.232;7.560;2024-03-07T11:08:08;18.30;;;10.10;;
56728;SDS011;42612;52.232;7.560;2024-03-07T11:10:39;21.80;;;10.60;;
56728;SDS011;42612;52.232;7.560;2024-03-07T11:13:09;18.05;;;10.80;;
56728;SDS011;42612;52.232;7.560;2024-03-07T11:15:37;17.13;;;9.77;;
56728;SDS011;42612;52.232;7.560;2024-03-07T11:18:06;17.90;;;10.18;;
56728;SDS011;42612;52.232;7.560;2024-03-07T11:23:25;16.55;;;9.77;;
56728;SDS011;42612;52.232;7.560;2024-03-07T11:26:06;18.00;;;10.10;;
56728;SDS011;42612;52.232;7.560;2024-03-07T11:28:40;16.52;;;10.07;;
56728;SDS011;42612;52.232;7.560;2024-03-07T11:31:25;18.30;;;11.05;;
56728;SDS011;42612;52.232;7.560;2024-03-07T11:36:41;16.02;;;10.45;;
56728;SDS011;42612;52.232;7.560;2024-03-07T11:39:38;17.33;;;9.43;;
56728;SDS011;42612;52.232;7.560;2024-03-07T11:42:08;17.48;;;9.85;;
56728;SDS011;42612;52.232;7.560;2024-03-07T11:44:44;17.40;;;10.32;;
56728;SDS011;42612;52.232;7.560;2024-03-07T11:47:11;14.05;;;9.35;;
56728;SDS011;42612;52.232;7.560;2024-03-07T11:49:38;17.35;;;9.35;;
56728;SDS011;42612;52.232;7.560;2024-03-07T11:52:04;15.32;;;9.63;;
56728;SDS011;42612;52.232;7.560;2024-03-07T11:54:37;14.55;;;9.50;;
56728;SDS011;42612;52.232;7.560;2024-03-07T11:57:11;17.27;;;10.18;;
56728;SDS011;42612;52.232;7.560;2024-03-07T11:59:41;17.25;;;9.85;;
56728;SDS011;42612;52.232;7.560;2024-03-07T12:02:14;15.38;;;8.95;;
56728;SDS011;42612;52.232;7.560;2024-03-07T12:04:40;17.08;;;10.00;;
56728;SDS011;42612;52.232;7.560;2024-03-07T12:07:07;21.95;;;12.27;;
56728;SDS011;42612;52.232;7.560;2024-03-07T12:09:35;19.63;;;10.63;;
56728;SDS011;42612;52.232;7.560;2024-03-07T12:12:05;17.73;;;10.32;;
56728;SDS011;42612;52.232;7.560;2024-03-07T12:14:31;17.15;;;10.63;;
56728;SDS011;42612;52.232;7.560;2024-03-07T12:16:59;16.67;;;10.23;;
56728;SDS011;42612;52.232;7.560;2024-03-07T12:19:32;18.80;;;10.63;;
56728;SDS011;42612;52.232;7.560;2024-03-07T12:22:01;18.27;;;10.68;;
56728;SDS011;42612;52.232;7.560;2024-03-07T12:24:28;23.77;;;10.07;;
56728;SDS011;42612;52.232;7.560;2024-03-07T12:27:04;15.38;;;9.65;;
56728;SDS011;42612;52.232;7.560;2024-03-07T12:29:35;19.90;;;10.52;;
56728;SDS011;42612;52.232;7.560;2024-03-07T12:32:08;19.30;;;9.77;;
56728;SDS011;42612;52.232;7.560;2024-03-07T12:34:38;18.33;;;10.50;;
56728;SDS011;42612;52.232;7.560;2024-03-07T12:37:10;18.13;;;10.20;;
56728;SDS011;42612;52.232;7.560;2024-03-07T12:39:41;18.17;;;9.98;;
56728;SDS011;42612;52.232;7.560;2024-03-07T12:42:12;14.88;;;9.40;;
56728;SDS011;42612;52.232;7.560;2024-03-07T12:44:43;19.48;;;9.70;;
56728;SDS011;42612;52.232;7.560;2024-03-07T12:47:13;16.42;;;9.68;;
56728;SDS011;42612;52.232;7.560;2024-03-07T12:49:43;19.73;;;10.20;;
56728;SDS011;42612;52.232;7.560;2024-03-07T12:52:10;20.67;;;10.75;;
56728;SDS011;42612;52.232;7.560;2024-03-07T12:54:40;20.45;;;11.30;;
56728;SDS011;42612;52.232;7.560;2024-03-07T12:57:09;19.77;;;10.88;;
56728;SDS011;42612;52.232;7.560;2024-03-07T12:59:37;19.40;;;10.35;;
56728;SDS011;42612;52.232;7.560;2024-03-07T13:02:10;18.02;;;10.35;;
56728;SDS011;42612;52.232;7.560;2024-03-07T13:04:37;21.23;;;12.25;;
56728;SDS011;42612;52.232;7.560;2024-03-07T13:07:04;19.40;;;10.93;;
56728;SDS011;42612;52.232;7.560;2024-03-07T13:09:30;16.55;;;9.95;;
56728;SDS011;42612;52.232;7.560;2024-03-07T13:11:59;19.40;;;10.30;;
56728;SDS011;42612;52.232;7.560;2024-03-07T13:14:26;19.48;;;10.93;;
56728;SDS011;42612;52.232;7.560;2024-03-07T13:16:58;19.13;;;9.93;;
56728;SDS011;42612;52.232;7.560;2024-03-07T13:19:25;19.80;;;10.90;;
56728;SDS011;42612;52.232;7.560;2024-03-07T13:21:54;15.90;;;10.18;;
56728;SDS011;42612;52.232;7.560;2024-03-07T13:24:21;17.30;;;10.00;;
56728;SDS011;42612;52.232;7.560;2024-03-07T13:26:48;21.13;;;11.30;;
56728;SDS011;42612;52.232;7.560;2024-03-07T13:29:14;19.23;;;10.23;;
56728;SDS011;42612;52.232;7.560;2024-03-07T13:31:40;18.85;;;10.23;;
56728;SDS011;42612;52.232;7.560;2024-03-07T13:34:11;20.20;;;11.02;;
56728;SDS011;42612;52.232;7.560;2024-03-07T13:36:40;19.40;;;10.48;;
56728;SDS011;42612;52.232;7.560;2024-03-07T13:39:07;18.50;;;10.00;;
56728;SDS011;42612;52.232;7.560;2024-03-07T13:41:40;19.75;;;10.07;;
56728;SDS011;42612;52.232;7.560;2024-03-07T13:44:13;17.55;;;10.75;;
56728;SDS011;42612;52.232;7.560;2024-03-07T13:46:39;21.08;;;10.38;;
56728;SDS011;42612;52.232;7.560;2024-03-07T13:49:05;18.30;;;10.10;;
56728;SDS011;42612;52.232;7.560;2024-03-07T13:51:51;19.27;;;9.35;;
56728;SDS011;42612;52.232;7.560;2024-03-07T13:54:21;19.30;;;10.55;;
56728;SDS011;42612;52.232;7.560;2024-03-07T13:59:49;18.40;;;10.35;;
56728;SDS011;42612;52.232;7.560;2024-03-07T14:02:56;20.77;;;10.85;;
56728;SDS011;42612;52.232;7.560;2024-03-07T14:05:51;22.13;;;11.20;;
56728;SDS011;42612;52.232;7.560;2024-03-07T14:21:23;23.10;;;11.98;;
56728;SDS011;42612;52.232;7.560;2024-03-07T14:27:43;20.10;;;10.93;;
56728;SDS011;42612;52.232;7.560;2024-03-07T14:33:19;21.30;;;11.48;;
56728;SDS011;42612;52.232;7.560;2024-03-07T14:36:23;25.20;;;12.02;;
56728;SDS011;42612;52.232;7.560;2024-03-07T14:39:13;20.70;;;11.35;;
56728;SDS011;42612;52.232;7.560;2024-03-07T14:41:41;23.65;;;12.00;;
56728;SDS011;42612;52.232;7.560;2024-03-07T14:44:10;23.33;;;11.77;;
56728;SDS011;42612;52.232;7.560;2024-03-07T14:46:36;21.88;;;12.13;;
56728;SDS011;42612;52.232;7.560;2024-03-07T14:49:02;23.50;;;11.88;;
56728;SDS011;42612;52.232;7.560;2024-03-07T14:51:29;20.25;;;11.52;;
56728;SDS011;42612;52.232;7.560;2024-03-07T14:53:55;23.50;;;11.38;;
56728;SDS011;42612;52.232;7.560;2024-03-07T14:56:20;27.23;;;12.93;;
56728;SDS011;42612;52.232;7.560;2024-03-07T14:58:46;24.60;;;11.93;;
56728;SDS011;42612;52.232;7.560;2024-03-07T15:01:12;27.58;;;11.95;;
56728;SDS011;42612;52.232;7.560;2024-03-07T15:03:38;20.67;;;11.65;;
56728;SDS011;42612;52.232;7.560;2024-03-07T15:06:06;22.30;;;11.00;;
56728;SDS011;42612;52.232;7.560;2024-03-07T15:08:34;20.13;;;10.82;;
56728;SDS011;42612;52.232;7.560;2024-03-07T15:11:07;24.38;;;12.38;;
56728;SDS011;42612;52.232;7.560;2024-03-07T15:13:53;18.63;;;11.40;;